Time;durP1;ratioP1;P1;durP2;ratioP2;P2;SDS_P1;SDS_P2;PMS_P1;PMS_P2;Temp;Humidity;BMP_temperature;BMP_pressure;BME280_temperature;BME280_humidity;BME280_pressure;Samples;Min_cycle;Max_cycle;Signal;HPM_P1;HPM_P2
2023/10/10 00:01:41;;;;;;;;;;;;;;;18.15;41.68;100540.06;5112471;28;19968;-64
2023/10/10 00:04:10;;;;;;;;;;;;;;;18.14;41.74;100537.47;5112373;28;20437;-65
2023/10/10 00:06:39;;;;;;;;;;;;;;;18.12;41.74;100534.91;5112237;28;20451;-65
2023/10/10 00:09:10;;;;;;;;;;;;;;;18.13;41.97;100544.72;5112196;28;20334;-65
2023/10/10 00:11:41;;;;;;;;;;;;;;;18.13;41.79;100535.75;5112600;28;20452;-65
2023/10/10 00:14:18;;;;;;;;;;;;;;;18.12;41.76;100551.09;5112526;28;20079;-65
2023/10/10 00:16:48;;;;;;;;;;;;;;;18.11;41.89;100562.03;5112152;28;20006;-66
2023/10/10 00:19:24;;;;;;;;;;;;;;;18.11;41.88;100565.59;5112255;28;19924;-66
2023/10/10 00:21:54;;;;;;;;;;;;;;;18.10;42.10;100574.69;5112235;28;19924;-65
2023/10/10 00:24:26;;;;;;;;;;;;;;;18.10;42.14;100569.28;5112472;28;19923;-65
2023/10/10 00:26:55;;;;;;;;;;;;;;;18.10;41.92;100573.81;5112107;28;19924;-66
2023/10/10 00:29:26;;;;;;;;;;;;;;;18.09;42.10;100578.38;5095778;28;19928;-66
2023/10/10 00:32:05;;;;;;;;;;;;;;;18.09;41.95;100578.38;5114564;28;19924;-66
2023/10/10 00:34:37;;;;;;;;;;;;;;;18.08;41.96;100586.59;5116248;28;20029;-65
2023/10/10 00:37:09;;;;;;;;;;;;;;;18.08;42.27;100592.00;5115629;28;19932;-65
2023/10/10 00:39:37;;;;;;;;;;;;;;;18.07;42.14;100588.44;5115909;28;20437;-65
2023/10/10 00:42:17;;;;;;;;;;;;;;;18.07;42.30;100591.16;5115687;28;19924;-65
2023/10/10 00:44:48;;;;;;;;;;;;;;;18.06;42.01;100584.03;5116076;28;19923;-65
2023/10/10 00:47:26;;;;;;;;;;;;;;;18.06;42.19;100583.19;5115742;28;19931;-64
2023/10/10 00:49:55;;;;;;;;;;;;;;;18.05;42.21;100587.72;5115784;28;19924;-65
2023/10/10 00:52:23;;;;;;;;;;;;;;;18.06;42.09;100596.69;5115977;28;19924;-64
2023/10/10 00:54:52;;;;;;;;;;;;;;;18.05;42.28;100597.66;5115865;28;19924;-65
2023/10/10 00:57:21;;;;;;;;;;;;;;;18.04;42.28;100591.41;5098943;28;20228;-65
2023/10/10 00:59:54;;;;;;;;;;;;;;;18.03;42.14;100587.84;5115585;28;19924;-65
2023/10/10 01:02:23;;;;;;;;;;;;;;;18.03;42.24;100598.63;5115459;28;19923;-65
2023/10/10 01:04:57;;;;;;;;;;;;;;;18.03;42.34;100589.69;5115819;28;20018;-64
2023/10/10 01:07:26;;;;;;;;;;;;;;;18.03;42.26;100589.69;5099211;28;20045;-65
2023/10/10 01:09:59;;;;;;;;;;;;;;;18.02;42.29;100582.56;5115683;28;20014;-64
2023/10/10 01:12:35;;;;;;;;;;;;;;;18.02;42.30;100585.28;5115463;28;20010;-65
2023/10/10 01:15:12;;;;;;;;;;;;;;;18.01;42.54;100597.91;5115263;28;19923;-65
2023/10/10 01:17:42;;;;;;;;;;;;;;;18.01;42.48;100610.56;5115192;28;19930;-65
2023/10/10 01:20:19;;;;;;;;;;;;;;;18.00;42.27;100608.84;5115466;28;19932;-65
2023/10/10 01:22:48;;;;;;;;;;;;;;;18.00;42.41;100611.56;5115266;28;19923;-65
2023/10/10 01:28:02;;;;;;;;;;;;;;;17.99;42.27;100612.53;5113244;28;20285;-65
2023/10/10 01:30:48;;;;;;;;;;;;;;;17.99;42.40;100609.84;5114941;28;19927;-64
2023/10/10 01:33:22;;;;;;;;;;;;;;;17.98;42.54;100608.13;5114845;28;19928;-67
2023/10/10 01:35:52;;;;;;;;;;;;;;;17.97;42.38;100606.44;5114906;28;20326;-65
2023/10/10 01:38:33;;;;;;;;;;;;;;;17.98;42.62;100613.53;5114820;28;19931;-64
2023/10/10 01:41:14;;;;;;;;;;;;;;;17.96;42.63;100602.03;5114842;28;20405;-65
2023/10/10 01:43:45;;;;;;;;;;;;;;;17.96;42.45;100593.91;5114088;28;20014;-64
2023/10/10 01:46:27;;;;;;;;;;;;;;;17.95;42.57;100593.06;5114922;28;19923;-65
2023/10/10 01:48:57;;;;;;;;;;;;;;;17.94;42.67;100594.03;5114439;28;19963;-65
2023/10/10 01:51:28;;;;;;;;;;;;;;;17.94;42.42;100593.16;5114853;28;19928;-65
2023/10/10 01:53:58;;;;;;;;;;;;;;;17.94;42.49;100574.28;5114793;28;20076;-65
2023/10/10 01:56:27;;;;;;;;;;;;;;;17.93;42.51;100561.78;5114664;28;20312;-65
2023/10/10 01:58:55;;;;;;;;;;;;;;;17.92;42.87;100533.09;5114403;28;19924;-65
2023/10/10 02:01:27;;;;;;;;;;;;;;;17.91;42.69;100542.16;5114313;28;20418;-66
2023/10/10 02:03:55;;;;;;;;;;;;;;;17.91;42.83;100566.47;5114306;27;19928;-65
2023/10/10 02:06:25;;;;;;;;;;;;;;;17.90;42.69;100587.19;5114274;28;20380;-65
2023/10/10 02:08:54;;;;;;;;;;;;;;;17.90;42.72;100594.44;5114566;28;19923;-65
2023/10/10 02:11:24;;;;;;;;;;;;;;;17.90;42.68;100602.53;5097729;28;19931;-65
2023/10/10 02:13:53;;;;;;;;;;;;;;;17.90;42.86;100594.44;5114258;28;19927;-65
2023/10/10 02:16:24;;;;;;;;;;;;;;;17.89;42.92;100596.28;5114204;28;19924;-65
2023/10/10 02:18:59;;;;;;;;;;;;;;;17.88;42.94;100596.41;5114251;28;19924;-64
2023/10/10 02:21:42;;;;;;;;;;;;;;;17.89;42.98;100608.91;5098361;28;19923;-65
2023/10/10 02:24:20;;;;;;;;;;;;;;;17.88;42.93;100601.81;5114103;28;19959;-65
2023/10/10 02:26:51;;;;;;;;;;;;;;;17.87;43.01;100592.88;5113805;28;19930;-65
2023/10/10 02:29:33;;;;;;;;;;;;;;;17.87;42.91;100594.69;5114061;28;20345;-65
2023/10/10 02:32:10;;;;;;;;;;;;;;;17.87;42.76;100605.50;5114088;28;20022;-64
2023/10/10 02:34:42;;;;;;;;;;;;;;;17.86;42.86;100603.78;5113630;28;19930;-63
2023/10/10 02:37:30;;;;;;;;;;;;;;;17.86;43.00;100598.41;5113401;28;20006;-64
2023/10/10 02:40:07;;;;;;;;;;;;;;;17.85;42.80;100602.06;5113944;28;19930;-64
2023/10/10 02:42:37;;;;;;;;;;;;;;;17.85;42.94;100602.91;5113911;28;19927;-64
2023/10/10 02:45:07;;;;;;;;;;;;;;;17.85;42.85;100613.69;5113687;28;19924;-64
2023/10/10 02:47:36;;;;;;;;;;;;;;;17.84;43.01;100617.38;5113359;28;20367;-64
2023/10/10 02:50:11;;;;;;;;;;;;;;;17.84;42.80;100611.13;5113613;28;19928;-65
2023/10/10 02:52:45;;;;;;;;;;;;;;;17.84;43.09;100608.44;5113797;28;19935;-65
2023/10/10 02:55:14;;;;;;;;;;;;;;;17.82;42.89;100608.56;5112465;28;19969;-64
2023/10/10 02:57:46;;;;;;;;;;;;;;;17.82;43.16;100627.47;5113241;28;19928;-65
2023/10/10 03:00:27;;;;;;;;;;;;;;;17.81;43.06;100627.59;5113126;28;20022;-65
2023/10/10 03:02:58;;;;;;;;;;;;;;;17.82;43.16;100634.69;5113439;28;19931;-65
2023/10/10 03:05:39;;;;;;;;;;;;;;;17.81;43.12;100633.84;5113395;28;19938;-65
2023/10/10 03:08:17;;;;;;;;;;;;;;;17.80;42.92;100637.53;5113346;28;19935;-66
2023/10/10 03:10:54;;;;;;;;;;;;;;;17.81;42.98;100635.69;5113023;28;20284;-65
2023/10/10 03:13:47;;;;;;;;;;;;;;;17.80;43.14;100625.88;5113056;28;19923;-64
2023/10/10 03:22:19;;;;;;;;;;;;;;;17.79;43.05;100629.56;5130520;27;19942;-66
2023/10/10 03:25:04;;;;;;;;;;;;;;;17.76;43.35;100629.81;5130215;28;19924;-65
2023/10/10 03:27:54;;;;;;;;;;;;;;;17.78;43.41;100633.25;5114966;28;19924;-65
2023/10/10 03:30:34;;;;;;;;;;;;;;;17.77;43.13;100635.09;5130482;28;19924;-65
2023/10/10 03:33:09;;;;;;;;;;;;;;;17.78;43.23;100630.56;5130237;27;20400;-65
2023/10/10 03:38:57;;;;;;;;;;;;;;;17.77;43.31;100631.53;5061177;27;20024;-65
2023/10/10 03:41:26;;;;;;;;;;;;;;;17.75;43.27;100634.34;5114206;28;19931;-65
2023/10/10 05:23:47;;;;;;;;;;;;;;;17.57;43.35;100696.06;5101328;28;19928;-65
2023/10/10 05:26:18;;;;;;;;;;;;;;;17.58;43.33;100705.88;5114499;28;19924;-64
2023/10/10 05:28:48;;;;;;;;;;;;;;;17.57;43.35;100706.88;5114187;28;19927;-65
2023/10/10 05:31:19;;;;;;;;;;;;;;;17.57;43.33;100700.63;5114228;28;19950;-65
2023/10/10 05:33:50;;;;;;;;;;;;;;;17.56;43.35;100707.81;5113719;28;20397;-66
2023/10/10 05:36:19;;;;;;;;;;;;;;;17.56;43.25;100709.66;5113689;28;20442;-65
2023/10/10 05:38:50;;;;;;;;;;;;;;;17.56;43.29;100715.06;5113919;28;20022;-64
2023/10/10 05:41:19;;;;;;;;;;;;;;;17.55;43.21;100722.28;5113480;28;19935;-65
2023/10/10 05:43:49;;;;;;;;;;;;;;;17.54;43.20;100728.66;5112754;28;19930;-64
2023/10/10 05:46:18;;;;;;;;;;;;;;;17.54;43.34;100728.66;5113465;28;19924;-64
2023/10/10 05:48:47;;;;;;;;;;;;;;;17.55;43.33;100734.91;5113199;28;20343;-66
2023/10/10 05:51:17;;;;;;;;;;;;;;;17.53;43.36;100721.56;5113760;28;19954;-66
2023/10/10 05:53:46;;;;;;;;;;;;;;;17.54;43.41;100734.06;5113304;27;20437;-66
2023/10/10 05:56:16;;;;;;;;;;;;;;;17.54;43.44;100730.50;5113778;28;19924;-65
2023/10/10 05:58:44;;;;;;;;;;;;;;;17.53;43.39;100726.97;5113690;28;19923;-64
2023/10/10 06:01:14;;;;;;;;;;;;;;;17.53;43.23;100731.50;5113571;28;19934;-65
2023/10/10 06:03:44;;;;;;;;;;;;;;;17.53;43.44;100736.91;5113479;28;20392;-64
2023/10/10 06:06:13;;;;;;;;;;;;;;;17.53;42.99;100736.91;5113330;28;20018;-64
2023/10/10 06:08:44;;;;;;;;;;;;;;;17.51;43.16;100734.31;5113343;28;20360;-64
2023/10/10 06:11:14;;;;;;;;;;;;;;;17.53;43.37;100742.28;5113838;28;19930;-65
2023/10/10 06:13:44;;;;;;;;;;;;;;;17.52;43.44;100752.22;5113592;28;19924;-64
2023/10/10 06:16:14;;;;;;;;;;;;;;;17.51;43.38;100761.31;5113678;28;19963;-64
2023/10/10 06:18:46;;;;;;;;;;;;;;;17.50;43.22;100748.78;5113026;28;19924;-65
2023/10/10 06:21:15;;;;;;;;;;;;;;;17.50;43.36;100751.50;5113126;28;20269;-66
2023/10/10 06:23:49;;;;;;;;;;;;;;;17.50;43.39;100764.97;5113316;28;19927;-66
2023/10/10 06:26:21;;;;;;;;;;;;;;;17.51;43.39;100772.09;5113223;28;20034;-66
2023/10/10 06:28:53;;;;;;;;;;;;;;;17.50;43.26;100775.78;5112308;28;19924;-66
2023/10/10 06:31:31;;;;;;;;;;;;;;;17.52;43.43;100779.19;5111099;28;19931;-66
2023/10/10 06:33:59;;;;;;;;;;;;;;;17.51;43.29;100784.72;5111045;28;19924;-65
2023/10/10 06:36:37;;;;;;;;;;;;;;;17.50;43.50;100778.47;5111172;28;19924;-68
2023/10/10 06:39:32;;;;;;;;;;;;;;;17.50;43.48;100786.56;5111712;28;20356;-67
2023/10/10 06:42:03;;;;;;;;;;;;;;;17.50;43.33;100791.94;5111565;28;20384;-67
2023/10/10 06:44:35;;;;;;;;;;;;;;;17.50;43.55;100791.94;5113094;28;19993;-67
2023/10/10 06:47:13;;;;;;;;;;;;;;;17.50;43.24;100785.69;5112793;28;19923;-67
2023/10/10 06:49:43;;;;;;;;;;;;;;;17.50;43.47;100783.84;5112767;28;20017;-67
2023/10/10 06:52:18;;;;;;;;;;;;;;;17.51;43.40;100779.31;5112584;28;19927;-66
2023/10/10 06:54:53;;;;;;;;;;;;;;;17.51;43.54;100782.88;5112710;28;20006;-67
2023/10/10 06:57:35;;;;;;;;;;;;;;;17.51;43.50;100785.56;5112836;28;19924;-67
2023/10/10 07:00:20;;;;;;;;;;;;;;;17.51;43.24;100787.41;5112753;28;19923;-67
2023/10/10 07:02:52;;;;;;;;;;;;;;;17.50;43.68;100781.16;5112583;28;20104;-67
2023/10/10 07:05:20;;;;;;;;;;;;;;;17.52;43.53;100787.28;5112831;28;19924;-67
2023/10/10 07:07:53;;;;;;;;;;;;;;;17.54;43.56;100787.16;5112761;28;19949;-67
2023/10/10 07:10:26;;;;;;;;;;;;;;;17.53;43.52;100786.31;5112740;28;20277;-67
2023/10/10 07:12:57;;;;;;;;;;;;;;;17.53;43.31;100780.91;5112697;28;20300;-67
2023/10/10 07:15:26;;;;;;;;;;;;;;;17.54;43.34;100787.16;5112536;28;19924;-67
2023/10/10 07:18:08;;;;;;;;;;;;;;;17.54;43.61;100803.34;5112640;28;19971;-67
2023/10/10 07:23:22;;;;;;;;;;;;;;;17.53;43.56;100802.47;5112184;28;19924;-67
2023/10/10 07:25:59;;;;;;;;;;;;;;;17.53;43.44;100802.47;5112330;28;19924;-67
2023/10/10 07:28:28;;;;;;;;;;;;;;;17.53;43.39;100801.63;5112580;28;19967;-67
2023/10/10 07:30:56;;;;;;;;;;;;;;;17.53;43.43;100805.19;5112386;28;19924;-67
2023/10/10 07:33:29;;;;;;;;;;;;;;;17.53;43.44;100812.41;5112398;28;19923;-67
2023/10/10 07:35:59;;;;;;;;;;;;;;;17.53;43.47;100815.97;5112148;28;19931;-67
2023/10/10 07:38:28;;;;;;;;;;;;;;;17.54;43.44;100819.53;5111273;28;19927;-66
2023/10/10 07:40:58;;;;;;;;;;;;;;;17.53;43.45;100805.19;5112532;28;19976;-67
2023/10/10 07:43:34;;;;;;;;;;;;;;;17.53;43.57;100802.47;5112107;28;19946;-66
2023/10/10 07:46:15;;;;;;;;;;;;;;;17.53;43.57;100802.47;5112235;28;19942;-66
2023/10/10 07:48:46;;;;;;;;;;;;;;;17.54;43.53;100797.94;5112026;28;19931;-66
2023/10/10 07:51:27;;;;;;;;;;;;;;;17.54;43.50;100804.19;5112353;28;19985;-67
2023/10/10 07:54:00;;;;;;;;;;;;;;;17.54;43.31;100804.19;5112123;28;19924;-66
2023/10/10 07:56:31;;;;;;;;;;;;;;;17.55;43.25;100811.31;5111742;28;19924;-66
2023/10/10 07:58:59;;;;;;;;;;;;;;;17.54;43.49;100803.34;5111943;28;20334;-66
2023/10/10 08:01:27;;;;;;;;;;;;;;;17.56;43.57;100806.75;5112008;28;19924;-66
2023/10/10 08:03:55;;;;;;;;;;;;;;;17.55;43.25;100805.06;5112123;28;19924;-66
2023/10/10 08:06:23;;;;;;;;;;;;;;;17.55;43.46;100811.31;5112325;28;20388;-65
2023/10/10 08:09:09;;;;;;;;;;;;;;;17.55;43.53;100811.31;5116027;28;20022;-66
2023/10/10 08:11:39;;;;;;;;;;;;;;;17.55;43.25;100805.91;5115643;28;19949;-66
2023/10/10 08:14:08;;;;;;;;;;;;;;;17.55;43.58;100805.06;5115577;28;19931;-67
2023/10/10 08:16:38;;;;;;;;;;;;;;;17.55;43.40;100805.91;5115970;28;19924;-65
2023/10/10 08:19:08;;;;;;;;;;;;;;;17.55;43.35;100814.00;5115819;28;19949;-67
2023/10/10 08:21:38;;;;;;;;;;;;;;;17.56;43.52;100818.41;5115539;28;19924;-66
2023/10/10 08:24:07;;;;;;;;;;;;;;;17.56;43.36;100822.94;5115607;28;19976;-68
2023/10/10 08:26:44;;;;;;;;;;;;;;;17.57;43.36;100820.16;5115583;28;19981;-67
2023/10/10 08:29:14;;;;;;;;;;;;;;;17.58;43.60;100827.25;5115651;27;20447;-66
2023/10/10 08:31:43;;;;;;;;;;;;;;;17.58;43.55;100832.66;5115352;28;19924;-68
2023/10/10 08:34:11;;;;;;;;;;;;;;;17.58;43.61;100827.25;5115626;28;19931;-65
2023/10/10 08:36:43;;;;;;;;;;;;;;;17.59;43.54;100822.72;5115369;28;19928;-66
2023/10/10 08:39:25;;;;;;;;;;;;;;;17.60;43.55;100832.53;5115290;28;19946;-66
2023/10/10 08:41:53;;;;;;;;;;;;;;;17.61;43.67;100834.25;5115262;28;19924;-66
2023/10/10 08:44:23;;;;;;;;;;;;;;;17.61;43.56;100843.19;5115138;28;19924;-66
2023/10/10 08:46:53;;;;;;;;;;;;;;;17.61;43.55;100845.88;5115125;28;19969;-67
2023/10/10 08:49:22;;;;;;;;;;;;;;;17.61;43.60;100853.97;5114932;28;19969;-66
2023/10/10 08:51:52;;;;;;;;;;;;;;;17.62;43.56;100852.13;5115165;28;19923;-66
2023/10/10 08:54:21;;;;;;;;;;;;;;;17.61;43.59;100845.88;5115108;28;19931;-67
2023/10/10 08:57:00;;;;;;;;;;;;;;;17.61;43.63;100837.78;5114954;28;19931;-68
2023/10/10 08:59:31;;;;;;;;;;;;;;;17.63;43.54;100841.22;5114874;28;19930;-67
2023/10/10 09:02:11;;;;;;;;;;;;;;;17.63;43.61;100846.63;5114666;28;19931;-67
2023/10/10 09:04:40;;;;;;;;;;;;;;;17.62;43.54;100844.91;5114798;28;19924;-67
2023/10/10 09:07:20;;;;;;;;;;;;;;;17.63;43.73;100846.63;5114747;28;19928;-67
2023/10/10 09:09:54;;;;;;;;;;;;;;;17.64;43.61;100855.56;5114746;28;19924;-67
2023/10/10 09:12:25;;;;;;;;;;;;;;;17.64;43.61;100858.25;5114402;28;19924;-67
2023/10/10 09:14:55;;;;;;;;;;;;;;;17.64;43.64;100861.81;5114418;28;19928;-67
2023/10/10 09:17:28;;;;;;;;;;;;;;;17.65;43.63;100866.22;5114501;28;20291;-67
2023/10/10 09:19:58;;;;;;;;;;;;;;;17.65;43.53;100870.75;5114371;27;19924;-67
2023/10/10 09:22:29;;;;;;;;;;;;;;;17.65;43.74;100868.06;5114325;28;19985;-66
2023/10/10 09:24:59;;;;;;;;;;;;;;;17.65;43.65;100868.91;5114263;28;20288;-66
2023/10/10 09:27:28;;;;;;;;;;;;;;;17.66;43.52;100867.97;5114386;28;19923;-66
2023/10/10 09:30:00;;;;;;;;;;;;;;;17.67;43.69;100871.53;5114423;28;19923;-66
2023/10/10 09:32:35;;;;;;;;;;;;;;;17.67;43.58;100874.22;5114269;28;19923;-66
2023/10/10 09:35:08;;;;;;;;;;;;;;;17.68;43.54;100871.41;5114023;28;20369;-66
2023/10/10 09:37:41;;;;;;;;;;;;;;;17.68;43.70;100875.94;5114043;28;20365;-67
2023/10/10 09:40:16;;;;;;;;;;;;;;;17.69;43.63;100881.25;5114180;28;19923;-66
2023/10/10 09:43:11;;;;;;;;;;;;;;;17.69;43.70;100878.53;5114156;28;20001;-66
2023/10/10 09:45:53;;;;;;;;;;;;;;;17.70;43.60;100880.25;5113878;28;20018;-67
2023/10/10 09:51:30;;;;;;;;;;;;;;;17.71;43.58;100883.81;5113868;28;19930;-66
2023/10/10 09:54:07;;;;;;;;;;;;;;;17.71;43.80;100881.97;5113524;28;20304;-66
2023/10/10 09:56:37;;;;;;;;;;;;;;;17.71;43.84;100871.19;5113941;28;19924;-67
2023/10/10 09:59:07;;;;;;;;;;;;;;;17.72;43.48;100862.09;5113680;28;20014;-67
2023/10/10 10:01:44;;;;;;;;;;;;;;;17.74;43.63;100870.06;5113899;28;19924;-66
2023/10/10 10:04:18;;;;;;;;;;;;;;;17.74;43.75;100876.31;5113663;28;19923;-65
2023/10/10 10:07:01;;;;;;;;;;;;;;;17.74;43.77;100881.72;5113484;28;20369;-67
2023/10/10 10:09:51;;;;;;;;;;;;;;;17.76;43.77;100872.63;5113689;28;19924;-66
2023/10/10 10:12:41;;;;;;;;;;;;;;;17.76;43.64;100867.22;5112221;28;20031;-67
2023/10/10 10:15:18;;;;;;;;;;;;;;;17.78;43.70;100857.19;5113128;28;19924;-66
2023/10/10 10:17:53;;;;;;;;;;;;;;;17.78;43.67;100855.34;5113464;28;19931;-66
2023/10/10 10:20:33;;;;;;;;;;;;;;;17.79;43.83;100858.91;5113432;28;20287;-66
2023/10/10 10:23:03;;;;;;;;;;;;;;;17.79;43.63;100858.91;5113018;28;19977;-67
2023/10/10 10:25:32;;;;;;;;;;;;;;;17.81;43.89;100859.66;5113097;28;19924;-66
2023/10/10 10:28:11;;;;;;;;;;;;;;;17.80;43.58;100864.19;5113279;28;19930;-66
2023/10/10 10:30:50;;;;;;;;;;;;;;;17.81;43.57;100865.03;5112597;28;19924;-66
2023/10/10 10:33:24;;;;;;;;;;;;;;;17.82;43.83;100866.75;5113489;28;20266;-66
2023/10/10 10:41:43;;;;;;;;;;;;;;;17.82;43.70;100861.34;5112903;28;20010;-67
2023/10/10 10:44:13;;;;;;;;;;;;;;;17.83;43.72;100863.06;5112782;28;19971;-67
2023/10/10 10:46:41;;;;;;;;;;;;;;;17.83;43.93;100854.97;5112654;28;19924;-67
2023/10/10 10:49:13;;;;;;;;;;;;;;;17.85;43.76;100850.31;5112549;28;20403;-67
2023/10/10 10:51:48;;;;;;;;;;;;;;;17.84;43.71;100849.44;5112826;28;19924;-67
2023/10/10 10:54:35;;;;;;;;;;;;;;;17.85;43.74;100855.69;5112477;28;19967;-66
2023/10/10 10:57:06;;;;;;;;;;;;;;;17.85;43.90;100851.16;5112760;28;19927;-65
2023/10/10 10:59:36;;;;;;;;;;;;;;;17.87;43.79;100854.63;5112906;28;19930;-66
2023/10/10 11:02:15;;;;;;;;;;;;;;;17.88;43.76;100850.06;5112762;28;20019;-67
2023/10/10 11:04:50;;;;;;;;;;;;;;;17.88;43.90;100850.06;5112630;27;20038;-68
2023/10/10 11:07:29;;;;;;;;;;;;;;;17.88;43.74;100852.78;5112495;28;19930;-67
2023/10/10 11:10:07;;;;;;;;;;;;;;;17.89;43.75;100855.34;5112974;28;19923;-67
2023/10/10 11:12:37;;;;;;;;;;;;;;;17.90;43.93;100850.81;5112482;28;19931;-67
2023/10/10 11:15:10;;;;;;;;;;;;;;;17.90;43.95;100846.25;5112592;28;19931;-66
2023/10/10 11:17:39;;;;;;;;;;;;;;;17.91;43.77;100855.22;5112397;28;20028;-66
2023/10/10 11:20:50;;;;;;;;;;;;;;;17.91;43.92;100850.69;5112136;28;19934;-67
2023/10/10 11:23:21;;;;;;;;;;;;;;;17.92;43.93;100848.84;5112478;28;19990;-66
2023/10/10 11:26:00;;;;;;;;;;;;;;;17.92;43.77;100851.53;5112422;28;20010;-66
2023/10/10 11:28:37;;;;;;;;;;;;;;;17.92;43.78;100841.59;5112198;28;20392;-66
2023/10/10 11:31:07;;;;;;;;;;;;;;;17.94;43.78;100833.38;5112906;28;20307;-66
2023/10/10 11:33:55;;;;;;;;;;;;;;;17.94;43.81;100841.47;5112190;28;19965;-66
2023/10/10 11:36:29;;;;;;;;;;;;;;;17.94;43.79;100820.72;5112414;28;19924;-66
2023/10/10 11:39:15;;;;;;;;;;;;;;;17.96;43.74;100820.63;5112625;28;19924;-66
2023/10/10 11:41:45;;;;;;;;;;;;;;;17.97;43.76;100827.75;5112959;28;19963;-67
2023/10/10 11:44:18;;;;;;;;;;;;;;;17.98;43.97;100824.91;5116786;28;19924;-67
2023/10/10 11:46:47;;;;;;;;;;;;;;;17.99;43.77;100832.00;5116018;28;20009;-66
2023/10/10 11:49:16;;;;;;;;;;;;;;;18.00;43.59;100827.47;5115793;28;19924;-67
2023/10/10 11:51:46;;;;;;;;;;;;;;;18.01;43.76;100824.66;5116266;28;19966;-67
2023/10/10 11:54:25;;;;;;;;;;;;;;;18.03;43.81;100806.47;5115770;28;20011;-66
2023/10/10 11:56:53;;;;;;;;;;;;;;;18.06;43.67;100816.19;5116000;28;19928;-66
2023/10/10 11:59:24;;;;;;;;;;;;;;;18.07;43.75;100809.81;5115851;28;19924;-66
2023/10/10 12:01:54;;;;;;;;;;;;;;;18.08;43.88;100814.22;5115938;28;19928;-67
2023/10/10 12:04:30;;;;;;;;;;;;;;;18.08;43.81;100816.91;5115980;28;20023;-66
2023/10/10 12:07:02;;;;;;;;;;;;;;;18.08;43.63;100814.22;5116072;27;19945;-67
2023/10/10 12:09:33;;;;;;;;;;;;;;;18.10;44.05;100805.97;5115567;28;19923;-67
2023/10/10 12:12:03;;;;;;;;;;;;;;;18.11;43.92;100810.38;5115577;28;19976;-67
2023/10/10 12:14:32;;;;;;;;;;;;;;;18.12;43.81;100798.59;5115414;28;19969;-66
2023/10/10 12:17:05;;;;;;;;;;;;;;;18.13;43.79;100801.16;5115683;28;19927;-67
2023/10/10 12:19:37;;;;;;;;;;;;;;;18.13;43.74;100790.38;5115877;28;19924;-67
2023/10/10 12:22:10;;;;;;;;;;;;;;;18.16;43.73;100789.28;5115806;28;19931;-67
2023/10/10 12:24:40;;;;;;;;;;;;;;;18.19;43.98;100789.00;5115580;28;20026;-67
2023/10/10 12:27:09;;;;;;;;;;;;;;;18.21;43.75;100787.03;5115701;28;20303;-67
2023/10/10 12:29:40;;;;;;;;;;;;;;;18.22;43.80;100788.75;5115491;28;20395;-67
2023/10/10 12:32:22;;;;;;;;;;;;;;;18.23;43.98;100785.91;5115597;28;19931;-65
2023/10/10 12:34:50;;;;;;;;;;;;;;;18.24;43.94;100787.66;5115274;28;19976;-67
2023/10/10 12:37:23;;;;;;;;;;;;;;;18.24;43.97;100800.31;5115184;28;19928;-66
2023/10/10 12:39:52;;;;;;;;;;;;;;;18.24;43.88;100793.06;5115256;28;20009;-65
2023/10/10 12:42:20;;;;;;;;;;;;;;;18.24;43.87;100793.06;5115302;28;19924;-65
2023/10/10 12:44:48;;;;;;;;;;;;;;;18.25;43.98;100788.50;5115191;28;19981;-66
2023/10/10 12:47:19;;;;;;;;;;;;;;;18.26;44.09;100785.69;5115137;28;19924;-66
2023/10/10 12:49:47;;;;;;;;;;;;;;;18.26;44.15;100785.69;5114917;28;19924;-66
2023/10/10 12:52:17;;;;;;;;;;;;;;;18.28;43.99;100789.09;5114450;28;19924;-67
2023/10/10 12:54:57;;;;;;;;;;;;;;;18.29;43.75;100790.81;5115313;28;19949;-66
2023/10/10 12:57:32;;;;;;;;;;;;;;;18.30;44.11;100792.53;5115106;28;19928;-67
2023/10/10 13:00:23;;;;;;;;;;;;;;;18.30;44.01;100792.53;5114958;28;20368;-67
2023/10/10 13:02:49;;;;;;;;;;;;;;;18.31;44.12;100796.09;5114771;28;20404;-67
2023/10/10 13:05:17;;;;;;;;;;;;;;;18.31;44.03;100788.84;5114952;28;19967;-67
2023/10/10 13:07:46;;;;;;;;;;;;;;;18.33;44.00;100795.94;5114909;28;19924;-67
2023/10/10 13:10:15;;;;;;;;;;;;;;;18.33;43.88;100788.69;5115111;28;20022;-67
2023/10/10 13:12:46;;;;;;;;;;;;;;;18.34;44.05;100779.66;5114416;28;19923;-66
2023/10/10 13:15:18;;;;;;;;;;;;;;;18.37;44.12;100783.91;5114933;28;19950;-66
2023/10/10 13:17:54;;;;;;;;;;;;;;;18.37;43.94;100782.06;5114649;28;19923;-65
2023/10/10 13:20:22;;;;;;;;;;;;;;;18.39;44.10;100790.03;5114181;28;19983;-65
2023/10/10 13:22:51;;;;;;;;;;;;;;;18.41;44.04;100783.50;5114478;28;20292;-66
2023/10/10 13:25:21;;;;;;;;;;;;;;;18.47;44.01;100788.41;5114180;28;19981;-65
2023/10/10 13:27:52;;;;;;;;;;;;;;;18.51;44.14;100770.94;5114523;28;20356;-66
2023/10/10 13:30:20;;;;;;;;;;;;;;;18.58;43.84;100768.59;5114350;28;20296;-66
2023/10/10 13:32:48;;;;;;;;;;;;;;;18.66;43.76;100771.53;5114113;28;19924;-65
2023/10/10 13:35:19;;;;;;;;;;;;;;;18.74;43.77;100766.31;5113808;28;20003;-66
2023/10/10 13:37:48;;;;;;;;;;;;;;;18.85;43.81;100765.38;5113583;28;20007;-65
2023/10/10 13:40:22;;;;;;;;;;;;;;;18.92;43.79;100769.28;5113937;28;19931;-65
2023/10/10 13:42:52;;;;;;;;;;;;;;;19.00;43.76;100768.59;5113550;28;20022;-68
2023/10/10 13:45:22;;;;;;;;;;;;;;;19.05;43.57;100761.81;5113350;28;19945;-66
2023/10/10 13:47:51;;;;;;;;;;;;;;;19.12;43.63;100764.84;5113580;28;20398;-66
2023/10/10 13:50:31;;;;;;;;;;;;;;;19.21;43.58;100761.31;5113312;28;19924;-66
2023/10/10 13:52:59;;;;;;;;;;;;;;;19.28;43.68;100764.31;5113743;28;20084;-66
2023/10/10 13:55:30;;;;;;;;;;;;;;;19.24;43.47;100755.63;5113718;28;20026;-65
2023/10/10 13:57:59;;;;;;;;;;;;;;;19.24;43.75;100760.19;5113554;28;19923;-65
2023/10/10 14:00:33;;;;;;;;;;;;;;;19.25;43.70;100760.03;5113429;28;20328;-66
2023/10/10 14:03:04;;;;;;;;;;;;;;;19.28;43.79;100767.88;5113229;28;19931;-67
2023/10/10 14:05:34;;;;;;;;;;;;;;;19.36;43.72;100762.66;5112771;28;19924;-66
2023/10/10 14:08:06;;;;;;;;;;;;;;;19.43;43.37;100758.41;5113539;28;20290;-65
2023/10/10 14:10:38;;;;;;;;;;;;;;;19.43;43.50;100752.16;5113448;28;19924;-66
2023/10/10 14:13:19;;;;;;;;;;;;;;;19.44;43.55;100761.97;5113062;28;19924;-67
2023/10/10 14:15:56;;;;;;;;;;;;;;;19.52;43.39;100761.28;5113275;28;19930;-66
2023/10/10 14:18:28;;;;;;;;;;;;;;;19.58;43.75;100763.47;5113029;28;20432;-66
2023/10/10 14:21:00;;;;;;;;;;;;;;;19.63;43.32;100759.38;5112878;28;20419;-65
2023/10/10 14:23:29;;;;;;;;;;;;;;;19.67;43.62;100758.06;5112902;28;19923;-65
2023/10/10 14:26:12;;;;;;;;;;;;;;;19.69;43.47;100764.22;5112670;28;20339;-67
2023/10/10 14:28:49;;;;;;;;;;;;;;;19.67;43.59;100771.63;5112835;28;20372;-67
2023/10/10 14:31:18;;;;;;;;;;;;;;;19.67;43.50;100774.31;5112718;28;19924;-65
2023/10/10 14:33:46;;;;;;;;;;;;;;;19.67;43.63;100770.75;5112954;28;19931;-65
2023/10/10 14:36:14;;;;;;;;;;;;;;;19.67;43.55;100762.63;5113151;28;19924;-65
2023/10/10 14:38:44;;;;;;;;;;;;;;;19.66;43.65;100766.34;5112663;28;19970;-67
2023/10/10 14:41:16;;;;;;;;;;;;;;;19.67;43.65;100770.75;5112615;28;19967;-66
2023/10/10 14:43:47;;;;;;;;;;;;;;;19.68;43.77;100769.75;5112485;28;19978;-66
2023/10/10 14:46:21;;;;;;;;;;;;;;;19.67;43.64;100768.06;5112354;28;20016;-66
2023/10/10 14:48:50;;;;;;;;;;;;;;;19.67;43.54;100763.50;5112526;28;19928;-66
2023/10/10 14:51:18;;;;;;;;;;;;;;;19.68;43.80;100769.75;5112348;28;19985;-66
2023/10/10 14:53:51;;;;;;;;;;;;;;;19.67;43.95;100762.63;5112632;28;19951;-66
2023/10/10 14:56:24;;;;;;;;;;;;;;;19.66;43.75;100760.94;5112244;28;19930;-67
2023/10/10 14:58:53;;;;;;;;;;;;;;;19.65;44.01;100760.06;5112766;28;19923;-66
2023/10/10 15:01:22;;;;;;;;;;;;;;;19.67;44.00;100770.75;5112621;28;19927;-67
2023/10/10 15:03:50;;;;;;;;;;;;;;;19.65;43.85;100768.19;5112618;28;20352;-66
2023/10/10 15:06:21;;;;;;;;;;;;;;;19.64;43.90;100768.34;5112641;28;20323;-68
2023/10/10 15:08:49;;;;;;;;;;;;;;;19.65;43.90;100775.47;5112523;28;19984;-66